createdAt,value
2019-03-24T00:00:16.899Z,91.05
2019-03-24T00:02:58.131Z,91.24
2019-03-24T00:05:38.987Z,90.98
2019-03-24T00:08:20.287Z,90.46
2019-03-24T00:11:01.657Z,90.42
2019-03-24T00:13:42.710Z,90.23
2019-03-24T00:16:23.576Z,90.22
2019-03-24T00:19:04.537Z,90.31
2019-03-24T00:21:45.809Z,90.33
2019-03-24T00:24:26.767Z,90.48
2019-03-24T00:27:07.476Z,90.87
2019-03-24T00:29:48.712Z,91.33
2019-03-24T00:32:29.647Z,91.51
2019-03-24T00:35:10.087Z,91.53
2019-03-24T00:37:50.665Z,91.39
2019-03-24T00:40:31.611Z,91.33
2019-03-24T00:43:12.893Z,91.32
2019-03-24T00:45:54.076Z,91.43
2019-03-24T00:48:36.354Z,91.66
2019-03-24T00:51:17.350Z,91.34
2019-03-24T00:53:58.066Z,91.21
2019-03-24T00:56:39.553Z,90.60
2019-03-24T00:59:20.877Z,89.69
2019-03-24T01:02:01.860Z,89.18
2019-03-24T01:04:43.117Z,89.09
2019-03-24T01:07:24.398Z,88.34
2019-03-24T01:10:05.435Z,88.91
2019-03-24T01:12:46.404Z,88.58
2019-03-24T01:15:27.090Z,88.29
2019-03-24T01:18:07.682Z,87.06
2019-03-24T01:20:47.767Z,85.74
2019-03-24T01:23:28.252Z,84.22
2019-03-24T01:26:08.905Z,83.71
2019-03-24T01:28:49.524Z,81.05
2019-03-24T01:31:30.227Z,79.44
2019-03-24T01:34:10.650Z,78.35
2019-03-24T01:36:51.721Z,75.84
2019-03-24T01:39:32.271Z,75.01
2019-03-24T01:42:12.826Z,72.58
2019-03-24T01:44:54.171Z,71.72
2019-03-24T01:47:35.359Z,68.89
2019-03-24T01:50:16.763Z,66.36
2019-03-24T01:52:57.288Z,66.42
2019-03-24T01:55:38.248Z,64.13
2019-03-24T01:58:18.883Z,63.21
2019-03-24T02:00:59.853Z,63.33
2019-03-24T02:03:40.802Z,63.42
2019-03-24T02:06:21.763Z,60.34
2019-03-24T02:09:02.715Z,61.04
2019-03-24T02:11:44.108Z,59.41
2019-03-24T02:14:25.292Z,54.99
2019-03-24T02:17:06.241Z,53.91
2019-03-24T02:19:47.198Z,53.32
2019-03-24T02:22:28.476Z,51.72
2019-03-24T02:25:09.447Z,52.52
2019-03-24T02:27:51.059Z,51.26
2019-03-24T02:30:32.240Z,47.67
2019-03-24T02:33:13.598Z,46.93
2019-03-24T02:35:54.924Z,47.16
2019-03-24T02:38:35.691Z,49.16
2019-03-24T02:41:17.101Z,48.17
2019-03-24T02:43:58.405Z,46.07
2019-03-24T02:46:40.006Z,42.50
2019-03-24T02:49:21.300Z,42.93
2019-03-24T02:52:01.937Z,41.94
2019-03-24T02:54:43.233Z,44.40
2019-03-24T02:57:23.866Z,41.81
2019-03-24T03:00:04.445Z,40.92
2019-03-24T03:02:45.780Z,39.99
2019-03-24T03:05:26.537Z,37.88
2019-03-24T03:08:07.738Z,39.12
2019-03-24T03:10:48.568Z,39.56
2019-03-24T03:13:29.114Z,40.67
2019-03-24T03:16:10.612Z,38.47
2019-03-24T03:18:51.423Z,41.29
2019-03-24T03:21:31.875Z,40.66
2019-03-24T03:24:12.804Z,38.83
2019-03-24T03:26:54.090Z,39.42
2019-03-24T03:29:35.688Z,38.89
2019-03-24T03:32:16.661Z,35.39
2019-03-24T03:34:57.618Z,37.11
2019-03-24T03:37:38.434Z,35.80
2019-03-24T03:40:19.778Z,34.32
2019-03-24T03:43:00.767Z,36.56
2019-03-24T03:45:41.613Z,35.79
2019-03-24T03:48:23.058Z,32.84
2019-03-24T03:51:04.636Z,33.99
2019-03-24T03:53:45.665Z,33.60
2019-03-24T03:56:26.754Z,34.12
2019-03-24T03:59:07.737Z,32.20
2019-03-24T04:01:48.599Z,32.66
2019-03-24T04:04:29.149Z,32.71
2019-03-24T04:26:21.093Z,30.66
2019-03-24T04:29:02.113Z,32.39
2019-03-24T04:31:42.714Z,28.97
2019-03-24T04:34:23.718Z,29.97
2019-03-24T04:37:04.668Z,29.32
2019-03-24T04:39:45.204Z,29.97
2019-03-24T04:42:26.550Z,29.22
2019-03-24T04:45:07.240Z,29.66
2019-03-24T04:47:48.170Z,26.23
2019-03-24T04:50:29.487Z,27.18
2019-03-24T04:53:10.659Z,26.90
2019-03-24T04:55:51.657Z,28.13
2019-03-24T04:58:32.918Z,24.12
2019-03-24T05:01:13.946Z,26.61
2019-03-24T05:03:54.849Z,26.83
2019-03-24T05:06:35.816Z,26.54
2019-03-24T05:09:18.350Z,27.18
2019-03-24T05:11:59.012Z,26.58
2019-03-24T05:14:39.646Z,28.38
2019-03-24T05:17:26.941Z,26.69
2019-03-24T05:20:02.621Z,26.97
2019-03-24T05:22:43.871Z,26.34
2019-03-24T05:25:25.011Z,25.23
2019-03-24T05:28:06.102Z,26.58
2019-03-24T05:30:47.058Z,27.59
2019-03-24T05:33:27.746Z,27.48
2019-03-24T05:36:08.342Z,25.98
2019-03-24T05:38:48.746Z,25.78
2019-03-24T05:41:29.957Z,26.49
2019-03-24T05:44:10.912Z,26.71
2019-03-24T05:46:51.972Z,27.09
2019-03-24T05:49:33.087Z,25.85
2019-03-24T05:52:13.964Z,27.10
2019-03-24T05:54:54.961Z,25.79
2019-03-24T05:57:36.296Z,26.18
2019-03-24T06:00:17.501Z,27.00
2019-03-24T06:02:58.913Z,25.94
2019-03-24T06:05:39.771Z,26.38
2019-03-24T06:08:20.836Z,26.99
2019-03-24T06:11:01.731Z,27.80
2019-03-24T06:13:42.474Z,27.73
2019-03-24T06:16:23.404Z,25.15
2019-03-24T06:19:03.784Z,25.66
2019-03-24T06:21:44.927Z,26.84
2019-03-24T06:24:26.235Z,25.34
2019-03-24T06:27:07.770Z,26.32
2019-03-24T06:29:48.265Z,26.51
2019-03-24T06:32:29.794Z,26.37
2019-03-24T06:35:10.973Z,25.75
2019-03-24T06:37:52.677Z,25.00
2019-03-24T06:40:33.321Z,25.51
2019-03-24T06:43:13.951Z,24.69
2019-03-24T06:45:54.814Z,24.30
2019-03-24T06:48:35.872Z,25.59
2019-03-24T06:51:17.066Z,26.62
2019-03-24T06:53:58.036Z,26.35
2019-03-24T06:56:38.780Z,26.34
2019-03-24T06:59:19.472Z,24.98
2019-03-24T07:02:00.523Z,26.16
2019-03-24T07:04:41.162Z,26.10
2019-03-24T07:07:22.225Z,27.18
2019-03-24T07:10:02.795Z,25.55
2019-03-24T07:12:43.553Z,24.42
2019-03-24T07:15:24.836Z,25.83
2019-03-24T07:18:08.744Z,24.78
2019-03-24T07:20:47.704Z,24.52
2019-03-24T07:23:29.521Z,26.32
2019-03-24T07:26:10.990Z,26.29
2019-03-24T07:28:51.878Z,26.00
2019-03-24T07:31:32.233Z,25.51
2019-03-24T07:34:13.142Z,25.37
2019-03-24T07:36:54.370Z,24.81
2019-03-24T07:39:35.579Z,25.79
2019-03-24T07:42:17.204Z,25.68
2019-03-24T07:44:58.457Z,24.11
2019-03-24T07:47:39.252Z,26.09
2019-03-24T07:50:19.931Z,25.42
2019-03-24T07:53:00.704Z,24.89
2019-03-24T07:55:41.649Z,24.61
2019-03-24T07:58:22.191Z,23.29
2019-03-24T08:01:02.672Z,24.33
2019-03-24T08:03:43.565Z,23.95
2019-03-24T08:06:24.684Z,24.03
2019-03-24T08:09:06.072Z,25.49
2019-03-24T08:11:46.544Z,24.42
2019-03-24T08:14:27.777Z,24.78
2019-03-24T08:17:09.156Z,24.21
2019-03-24T08:19:50.099Z,22.53
2019-03-24T08:22:31.058Z,23.57
2019-03-24T08:25:12.019Z,24.83
2019-03-24T08:27:53.286Z,24.29
2019-03-24T08:30:33.877Z,24.62
2019-03-24T08:33:15.243Z,25.14
2019-03-24T08:35:56.245Z,23.91
2019-03-24T08:38:37.467Z,24.96
2019-03-24T08:41:18.459Z,24.67
2019-03-24T08:43:59.061Z,24.21
2019-03-24T08:46:39.728Z,23.87
2019-03-24T08:49:20.664Z,23.17
2019-03-24T08:52:01.219Z,24.01
2019-03-24T08:54:42.033Z,22.33
2019-03-24T08:57:22.597Z,21.70
2019-03-24T09:00:04.030Z,23.84
2019-03-24T09:02:45.164Z,24.55
2019-03-24T09:05:26.766Z,23.95
2019-03-24T09:08:07.701Z,22.05
2019-03-24T09:10:48.484Z,23.83
2019-03-24T09:13:29.970Z,24.03
2019-03-24T09:16:10.942Z,22.86
2019-03-24T09:18:53.030Z,22.27
2019-03-24T09:21:33.804Z,23.94
2019-03-24T09:24:14.510Z,24.01
2019-03-24T09:26:55.721Z,23.83
2019-03-24T09:29:36.997Z,23.90
2019-03-24T09:32:17.975Z,24.38
2019-03-24T09:34:58.646Z,24.72
2019-03-24T09:37:39.445Z,25.02
2019-03-24T09:40:21.173Z,25.80
2019-03-24T09:43:04.035Z,22.92
2019-03-24T09:45:45.317Z,23.97
2019-03-24T09:48:26.115Z,25.16
2019-03-24T09:51:07.280Z,24.98
2019-03-24T09:53:47.872Z,25.68
2019-03-24T09:56:29.369Z,23.41
2019-03-24T09:59:10.650Z,25.65
2019-03-24T10:01:51.939Z,25.71
2019-03-24T10:04:32.647Z,26.60
2019-03-24T10:07:13.849Z,25.06
2019-03-24T10:09:55.441Z,24.57
2019-03-24T10:12:36.210Z,25.60
2019-03-24T10:15:17.381Z,25.09
2019-03-24T10:17:58.682Z,25.98
2019-03-24T10:20:39.942Z,24.43
2019-03-24T10:23:20.900Z,24.49
2019-03-24T10:26:02.088Z,25.84
2019-03-24T10:28:43.290Z,26.50
2019-03-24T10:31:24.535Z,28.05
2019-03-24T10:34:05.349Z,25.94
2019-03-24T10:36:46.327Z,27.09
2019-03-24T10:39:27.360Z,27.01
2019-03-24T10:42:08.571Z,28.62
2019-03-24T10:44:49.843Z,26.26
2019-03-24T10:47:30.817Z,26.78
2019-03-24T10:50:14.249Z,27.78
2019-03-24T10:52:53.402Z,27.69
2019-03-24T10:55:34.335Z,28.29
2019-03-24T10:58:15.298Z,27.98
2019-03-24T11:00:56.414Z,29.20
2019-03-24T11:03:37.367Z,28.81
2019-03-24T11:06:19.404Z,29.78
2019-03-24T11:09:00.745Z,30.04
2019-03-24T11:11:41.409Z,30.58
2019-03-24T11:14:22.189Z,29.60
2019-03-24T11:17:02.533Z,30.04
2019-03-24T11:19:42.797Z,31.97
2019-03-24T11:22:23.238Z,30.43
2019-03-24T11:25:03.652Z,31.25
2019-03-24T11:27:44.392Z,31.61
2019-03-24T11:30:25.269Z,32.92
2019-03-24T11:33:06.211Z,32.38
2019-03-24T11:35:47.162Z,34.14
2019-03-24T11:38:28.441Z,35.17
2019-03-24T11:41:10.360Z,36.84
2019-03-24T11:43:51.053Z,37.40
2019-03-24T11:46:31.959Z,38.53
2019-03-24T11:49:12.161Z,41.22
2019-03-24T11:51:52.535Z,42.63
2019-03-24T11:54:32.892Z,43.80
2019-03-24T11:57:13.289Z,44.68
2019-03-24T11:59:53.604Z,46.43
2019-03-24T12:02:34.414Z,44.84
2019-03-24T12:05:15.328Z,43.50
2019-03-24T12:07:56.365Z,42.37
2019-03-24T12:10:37.034Z,43.25
2019-03-24T12:13:17.366Z,44.14
2019-03-24T12:15:58.085Z,45.34
2019-03-24T12:18:39.297Z,48.11
2019-03-24T12:21:19.775Z,51.96
2019-03-24T12:24:00.628Z,53.36
2019-03-24T12:26:41.271Z,53.30
2019-03-24T12:29:21.984Z,52.24
2019-03-24T12:32:03.130Z,50.12
2019-03-24T12:34:44.084Z,53.60
2019-03-24T12:37:25.361Z,55.52
2019-03-24T12:40:06.406Z,56.18
2019-03-24T12:42:47.379Z,57.23
2019-03-24T12:45:29.261Z,57.81
2019-03-24T12:48:10.954Z,59.28
2019-03-24T12:50:52.098Z,60.71
2019-03-24T12:53:33.349Z,62.37
2019-03-24T12:56:14.304Z,60.58
2019-03-24T12:58:55.935Z,61.31
2019-03-24T13:01:36.915Z,61.78
2019-03-24T13:04:17.859Z,63.10
2019-03-24T13:06:58.815Z,63.87
2019-03-24T13:09:39.416Z,64.63
2019-03-24T13:12:20.415Z,64.75
2019-03-24T13:15:01.277Z,64.88
2019-03-24T13:17:42.284Z,65.31
2019-03-24T13:20:36.576Z,64.39
2019-03-24T13:23:04.726Z,64.54
2019-03-24T13:25:45.918Z,66.39
2019-03-24T13:28:26.905Z,66.87
2019-03-24T13:31:08.163Z,67.63
2019-03-24T13:33:48.796Z,67.57
2019-03-24T13:36:30.074Z,67.51
2019-03-24T13:39:11.119Z,67.36
2019-03-24T13:41:52.186Z,69.96
2019-03-24T13:44:33.285Z,69.80
2019-03-24T13:47:14.556Z,70.61
2019-03-24T13:49:55.836Z,70.18
2019-03-24T13:52:37.136Z,70.89
2019-03-24T13:55:19.167Z,71.10
2019-03-24T13:58:00.473Z,69.58
2019-03-24T14:00:41.886Z,68.52
2019-03-24T14:03:22.881Z,69.20
2019-03-24T14:06:03.851Z,68.94
2019-03-24T14:08:44.816Z,68.75
2019-03-24T14:11:25.989Z,67.87
2019-03-24T14:14:07.996Z,68.82
2019-03-24T14:16:50.555Z,68.69
2019-03-24T14:19:31.824Z,69.49
2019-03-24T14:22:12.807Z,69.89
2019-03-24T14:24:53.677Z,69.96
2019-03-24T14:27:35.046Z,69.95
2019-03-24T14:30:15.994Z,70.16
2019-03-24T14:32:57.024Z,70.00
2019-03-24T14:35:38.241Z,71.53
2019-03-24T14:38:19.834Z,71.41
2019-03-24T14:41:00.377Z,70.98
2019-03-24T14:43:41.755Z,70.91
2019-03-24T14:46:23.039Z,70.87
2019-03-24T14:49:03.747Z,70.94
2019-03-24T14:51:45.286Z,71.15
2019-03-24T14:54:27.105Z,71.50
2019-03-24T14:57:08.803Z,70.84
2019-03-24T14:59:49.458Z,70.10
2019-03-24T15:02:30.395Z,69.74
2019-03-24T15:05:11.677Z,71.52
2019-03-24T15:07:52.465Z,73.38
2019-03-24T15:10:33.605Z,73.77
2019-03-24T15:13:14.568Z,73.87
2019-03-24T15:15:56.184Z,74.14
2019-03-24T15:18:37.119Z,73.79
2019-03-24T15:21:17.755Z,74.58
2019-03-24T15:23:58.718Z,76.26
2019-03-24T15:26:40.007Z,77.07
2019-03-24T15:29:20.663Z,77.45
2019-03-24T15:32:01.923Z,77.53
2019-03-24T15:34:42.739Z,76.35
2019-03-24T15:37:23.771Z,76.07
2019-03-24T15:40:05.129Z,75.74
2019-03-24T15:42:46.112Z,76.36
2019-03-24T15:45:26.594Z,76.79
2019-03-24T15:48:08.094Z,77.54
2019-03-24T15:50:49.172Z,78.16
2019-03-24T15:53:30.142Z,78.72
2019-03-24T15:56:10.892Z,79.62
2019-03-24T15:58:51.141Z,80.31
2019-03-24T16:01:32.165Z,80.13
2019-03-24T16:04:13.115Z,78.69
2019-03-24T16:06:53.763Z,78.71
2019-03-24T16:09:35.038Z,78.42
2019-03-24T16:12:16.001Z,78.97
2019-03-24T16:14:58.876Z,78.48
2019-03-24T16:17:39.265Z,78.81
2019-03-24T16:20:19.836Z,79.15
2019-03-24T16:23:00.793Z,79.42
2019-03-24T16:25:42.075Z,79.48
2019-03-24T16:28:22.734Z,79.61
2019-03-24T16:31:03.674Z,79.31
2019-03-24T16:33:44.640Z,80.23
2019-03-24T16:36:25.456Z,80.21
2019-03-24T16:39:06.555Z,80.34
2019-03-24T16:41:47.526Z,80.00
2019-03-24T16:44:28.160Z,77.97
2019-03-24T16:47:09.753Z,76.27
2019-03-24T16:49:50.846Z,76.57
2019-03-24T16:52:32.002Z,77.50
2019-03-24T16:55:12.959Z,78.64
2019-03-24T16:57:53.923Z,78.62
2019-03-24T17:00:34.874Z,79.04
2019-03-24T17:03:16.487Z,78.87
2019-03-24T17:05:57.397Z,78.77
2019-03-24T17:08:38.075Z,78.77
2019-03-24T17:11:19.040Z,78.85
2019-03-24T17:14:00.326Z,78.91
2019-03-24T17:16:41.297Z,79.54
2019-03-24T17:19:21.974Z,79.62
2019-03-24T17:22:03.496Z,79.74
2019-03-24T17:24:44.156Z,79.25
2019-03-24T17:27:25.298Z,79.65
2019-03-24T17:30:06.551Z,79.33
2019-03-24T17:32:47.750Z,79.40
2019-03-24T17:35:28.315Z,79.00
2019-03-24T17:38:09.130Z,80.04
2019-03-24T17:40:50.035Z,80.54
2019-03-24T17:43:30.999Z,81.20
2019-03-24T17:46:11.966Z,81.87
2019-03-24T17:48:53.235Z,82.15
2019-03-24T17:51:34.716Z,83.08
2019-03-24T17:54:15.352Z,83.59
2019-03-24T17:56:56.319Z,83.10
2019-03-24T17:59:37.745Z,82.06
2019-03-24T18:02:18.536Z,82.20
2019-03-24T18:04:59.290Z,81.92
2019-03-24T18:07:40.476Z,82.05
2019-03-24T18:10:21.447Z,81.92
2019-03-24T18:13:02.075Z,81.57
2019-03-24T18:15:43.067Z,80.65
2019-03-24T18:18:24.213Z,80.31
2019-03-24T18:21:05.276Z,80.19
2019-03-24T18:23:46.317Z,80.75
2019-03-24T18:26:27.531Z,79.53
2019-03-24T18:29:08.532Z,79.22
2019-03-24T18:31:50.078Z,79.23
2019-03-24T18:34:31.035Z,79.30
2019-03-24T18:37:12.632Z,79.12
2019-03-24T18:39:53.676Z,78.92
2019-03-24T18:42:34.585Z,79.20
2019-03-24T18:45:16.165Z,77.62
2019-03-24T18:47:57.115Z,78.75
2019-03-24T18:50:38.565Z,79.28
2019-03-24T18:53:19.183Z,80.17
2019-03-24T18:56:00.350Z,81.92
2019-03-24T18:58:41.273Z,83.17
2019-03-24T19:01:22.233Z,84.40
2019-03-24T19:04:03.084Z,83.71
2019-03-24T19:06:44.800Z,84.00
2019-03-24T19:09:26.005Z,84.93
2019-03-24T19:12:07.739Z,84.03
2019-03-24T19:14:48.954Z,83.84
2019-03-24T19:17:29.592Z,83.30
2019-03-24T19:20:10.872Z,83.40
2019-03-24T19:22:51.535Z,83.00
2019-03-24T19:25:32.480Z,83.61
2019-03-24T19:28:13.149Z,84.42
2019-03-24T19:30:54.275Z,84.61
2019-03-24T19:33:35.458Z,84.56
2019-03-24T19:36:15.993Z,83.87
2019-03-24T19:38:57.296Z,83.90
2019-03-24T19:41:38.297Z,84.26
2019-03-24T19:44:18.891Z,83.98
2019-03-24T19:46:59.506Z,84.49
2019-03-24T19:49:40.303Z,84.27
2019-03-24T19:52:21.111Z,83.75
2019-03-24T19:55:01.747Z,83.57
2019-03-24T19:57:43.031Z,83.36
2019-03-24T20:00:23.426Z,83.53
2019-03-24T20:03:05.275Z,83.43
2019-03-24T20:05:46.875Z,83.10
2019-03-24T20:08:28.156Z,83.20
2019-03-24T20:11:09.781Z,82.83
2019-03-24T20:13:50.733Z,83.31
2019-03-24T20:16:32.192Z,83.18
2019-03-24T20:19:13.271Z,82.90
2019-03-24T20:21:54.553Z,83.11
2019-03-24T20:24:35.196Z,83.17
2019-03-24T20:27:17.115Z,84.28
2019-03-24T20:29:58.712Z,84.28
2019-03-24T20:32:39.350Z,84.82
2019-03-24T20:35:20.642Z,85.06
2019-03-24T20:38:01.925Z,85.60
2019-03-24T20:40:42.974Z,85.78
2019-03-24T20:43:23.967Z,85.80
2019-03-24T20:46:05.451Z,86.03
2019-03-24T20:48:46.657Z,85.96
2019-03-24T20:51:27.192Z,84.95
2019-03-24T20:54:08.536Z,84.79
2019-03-24T20:56:49.620Z,84.50
2019-03-24T20:59:30.553Z,84.75
2019-03-24T21:02:11.834Z,84.76
2019-03-24T21:04:53.437Z,84.54
2019-03-24T21:07:35.039Z,84.00
2019-03-24T21:10:16.311Z,84.00
2019-03-24T21:12:57.597Z,84.15
2019-03-24T21:15:38.875Z,84.59
2019-03-24T21:18:19.851Z,84.64
2019-03-24T21:21:00.684Z,86.00
2019-03-24T21:23:41.483Z,85.84
2019-03-24T21:26:22.633Z,85.83
2019-03-24T21:29:04.009Z,86.39
2019-03-24T21:31:45.239Z,86.85
2019-03-24T21:34:27.195Z,87.43
2019-03-24T21:37:08.792Z,87.50
2019-03-24T21:39:50.580Z,87.13
2019-03-24T21:42:32.005Z,87.02
2019-03-24T21:45:12.907Z,86.88
2019-03-24T21:47:54.005Z,87.22
2019-03-24T21:50:34.876Z,87.30
2019-03-24T21:53:15.835Z,87.14
2019-03-24T21:55:57.114Z,86.63
2019-03-24T21:58:38.395Z,86.96
2019-03-24T22:01:19.357Z,87.01
2019-03-24T22:04:00.319Z,86.26
2019-03-24T22:06:41.938Z,86.61
2019-03-24T22:09:23.532Z,86.72
2019-03-24T22:12:04.150Z,86.28
2019-03-24T22:14:45.434Z,86.42
2019-03-24T22:17:26.713Z,86.37
2019-03-24T22:20:07.368Z,86.11
2019-03-24T22:22:48.650Z,85.99
2019-03-24T22:25:29.653Z,85.53
2019-03-24T22:28:10.889Z,85.46
2019-03-24T22:30:52.150Z,84.28
2019-03-24T22:33:32.984Z,84.54
2019-03-24T22:36:13.801Z,84.41
2019-03-24T22:38:55.040Z,84.39
2019-03-24T22:41:35.992Z,85.07
2019-03-24T22:44:17.910Z,84.73
2019-03-24T22:46:59.084Z,85.21
2019-03-24T22:49:39.842Z,85.41
2019-03-24T22:52:20.560Z,85.27
2019-03-24T22:55:01.507Z,86.12
2019-03-24T22:57:42.856Z,86.55
2019-03-24T23:00:23.674Z,86.35
2019-03-24T23:03:04.954Z,86.78
2019-03-24T23:05:46.105Z,86.52
2019-03-24T23:08:26.926Z,87.22
2019-03-24T23:11:08.045Z,87.05
2019-03-24T23:13:48.545Z,86.64
2019-03-24T23:16:29.516Z,86.87
2019-03-24T23:19:10.698Z,87.27
2019-03-24T23:21:52.312Z,86.43
2019-03-24T23:24:33.595Z,86.38
2019-03-24T23:27:14.238Z,85.79
2019-03-24T23:29:55.516Z,85.44
2019-03-24T23:32:36.480Z,86.06
2019-03-24T23:35:17.421Z,86.39
2019-03-24T23:37:58.071Z,86.00
2019-03-24T23:40:39.039Z,86.37
2019-03-24T23:43:19.351Z,86.30
2019-03-24T23:46:00.431Z,86.41
2019-03-24T23:48:41.279Z,86.33
2019-03-24T23:51:22.593Z,86.31
2019-03-24T23:54:03.645Z,86.39
2019-03-24T23:56:44.489Z,86.08
2019-03-24T23:59:25.113Z,85.81
